Time;durP1;ratioP1;P1;durP2;ratioP2;P2;SDS_P1;SDS_P2;PMS_P1;PMS_P2;Temp;Humidity;BMP_temperature;BMP_pressure;BME280_temperature;BME280_humidity;BME280_pressure;Samples;Min_cycle;Max_cycle;Signal;HPM_P1;HPM_P2
2023/01/22 00:00:26;;;;;;;24.47;19.77;;;;;;;7.77;100.00;101490.09;2112212;28;20303;-60
2023/01/22 00:01:26;;;;;;;23.17;18.67;;;;;;;7.67;100.00;101480.63;2106549;28;20254;-60
2023/01/22 00:02:27;;;;;;;21.57;18.83;;;;;;;7.69;100.00;101483.78;2106730;28;20196;-60
2023/01/22 00:03:27;;;;;;;23.40;18.40;;;;;;;7.70;100.00;101492.84;2110758;28;20199;-60
2023/01/22 00:04:28;;;;;;;23.03;18.60;;;;;;;7.73;100.00;101481.81;2110266;28;20242;-60
2023/01/22 00:05:28;;;;;;;22.73;18.30;;;;;;;7.74;100.00;101483.41;2110278;28;20191;-60
2023/01/22 00:06:29;;;;;;;24.67;18.13;;;;;;;7.66;100.00;101479.06;2102723;28;20187;-60
2023/01/22 00:07:30;;;;;;;20.95;18.17;;;;;;;7.62;100.00;101481.03;2111930;28;20261;-60
2023/01/22 00:08:31;;;;;;;22.83;19.40;;;;;;;7.57;100.00;101492.44;2106132;28;20188;-60
2023/01/22 00:09:31;;;;;;;20.93;18.63;;;;;;;7.59;100.00;101492.81;2106911;28;20191;-60
2023/01/22 00:10:32;;;;;;;22.03;18.10;;;;;;;7.25;100.00;101425.41;2105342;28;20205;-59
2023/01/22 00:11:32;;;;;;;20.17;17.93;;;;;;;7.64;100.00;101472.34;2111873;28;20617;-59
2023/01/22 00:12:34;;;;;;;23.33;18.27;;;;;;;7.68;100.00;101482.19;2108721;28;20222;-60
2023/01/22 00:13:34;;;;;;;23.60;18.92;;;;;;;7.73;100.00;101481.03;2106182;28;20194;-60
2023/01/22 00:14:35;;;;;;;21.43;18.50;;;;;;;7.68;100.00;101475.91;2103167;28;20234;-59
2023/01/22 00:15:37;;;;;;;21.77;18.53;;;;;;;7.16;100.00;101389.16;2107936;28;20335;-60
2023/01/22 00:16:40;;;;;;;22.60;19.85;;;;;;;7.29;100.00;101419.88;2110884;28;20221;-60
2023/01/22 00:17:40;;;;;;;22.13;19.65;;;;;;;7.66;100.00;101484.56;2109374;28;20265;-60
2023/01/22 00:18:41;;;;;;;23.37;19.73;;;;;;;7.66;100.00;101481.81;2108884;28;20279;-60
2023/01/22 00:19:42;;;;;;;23.00;20.23;;;;;;;6.63;100.00;101324.06;2110801;28;20628;-60
2023/01/22 00:20:53;;;;;;;25.13;20.48;;;;;;;7.65;100.00;101480.25;2110582;28;20263;-60
2023/01/22 00:21:53;;;;;;;23.25;20.77;;;;;;;7.69;100.00;101485.75;2102753;28;20193;-60
2023/01/22 00:22:54;;;;;;;22.03;19.67;;;;;;;7.73;100.00;101479.06;2110141;28;20238;-60
2023/01/22 00:23:54;;;;;;;25.23;20.67;;;;;;;7.75;100.00;101489.72;2107346;28;20187;-60
2023/01/22 00:24:54;;;;;;;23.53;20.40;;;;;;;7.75;100.00;101481.44;2110021;28;20634;-60
2023/01/22 00:26:10;;;;;;;25.40;21.30;;;;;;;7.75;100.00;101486.94;2110457;28;20170;-60
2023/01/22 00:27:10;;;;;;;24.15;20.80;;;;;;;7.75;100.00;101484.97;2110121;28;20194;-61
2023/01/22 00:28:11;;;;;;;24.83;20.40;;;;;;;7.79;100.00;101485.75;2107797;28;20211;-60
2023/01/22 00:29:12;;;;;;;23.60;20.67;;;;;;;7.70;100.00;101468.78;2105949;28;20240;-60
2023/01/22 00:30:12;;;;;;;23.33;20.90;;;;;;;7.92;100.00;101505.50;2106673;28;20232;-60
2023/01/22 00:31:15;;;;;;;22.90;20.13;;;;;;;7.93;100.00;101496.03;2106337;28;20214;-59
2023/01/22 00:32:15;;;;;;;22.35;19.50;;;;;;;7.91;100.00;101503.91;2109257;28;20681;-60
2023/01/22 00:33:15;;;;;;;25.73;20.77;;;;;;;7.90;100.00;101500.34;2109047;28;20560;-60
2023/01/22 00:34:16;;;;;;;23.90;19.70;;;;;;;7.93;100.00;101501.53;2106186;28;20296;-60
2023/01/22 00:35:16;;;;;;;24.00;20.37;;;;;;;7.90;100.00;101503.13;2105885;28;20193;-61
2023/01/22 00:36:19;;;;;;;23.33;20.17;;;;;;;7.92;100.00;101502.72;2105255;28;20267;-60
2023/01/22 00:37:19;;;;;;;23.60;20.98;;;;;;;7.94;100.00;101508.66;2111152;28;20739;-60
2023/01/22 00:38:20;;;;;;;22.37;19.50;;;;;;;7.99;100.00;101503.53;2106405;28;20310;-60
2023/01/22 00:39:20;;;;;;;22.90;20.23;;;;;;;7.89;100.00;101509.06;2110639;28;20223;-60
2023/01/22 00:40:21;;;;;;;21.63;18.80;;;;;;;7.88;100.00;101508.25;2110757;28;20207;-60
2023/01/22 00:41:22;;;;;;;22.77;18.53;;;;;;;7.94;100.00;101505.91;2106355;28;20746;-59
2023/01/22 00:42:22;;;;;;;21.07;18.43;;;;;;;7.89;100.00;101503.53;2112869;28;20187;-60
2023/01/22 00:43:22;;;;;;;21.47;19.17;;;;;;;7.71;100.00;101467.63;2109257;28;20181;-60
2023/01/22 00:44:23;;;;;;;22.37;19.17;;;;;;;7.97;100.00;101492.09;2111613;28;20177;-60
2023/01/22 00:45:23;;;;;;;21.97;19.50;;;;;;;7.89;100.00;101495.25;2111516;28;20198;-60
2023/01/22 00:46:24;;;;;;;22.67;18.80;;;;;;;7.91;100.00;101501.16;2105974;28;20212;-60
2023/01/22 00:47:25;;;;;;;20.30;18.10;;;;;;;7.95;100.00;101513.00;2110457;28;20187;-60
2023/01/22 00:48:25;;;;;;;19.88;17.80;;;;;;;7.77;100.00;101484.56;2107721;28;20193;-60
2023/01/22 00:49:26;;;;;;;19.30;17.30;;;;;;;7.97;100.00;101527.19;2108416;28;20198;-60
2023/01/22 00:50:26;;;;;;;20.40;17.70;;;;;;;7.55;100.00;101469.19;2102249;28;20245;-60
2023/01/22 00:51:27;;;;;;;20.43;17.67;;;;;;;7.99;100.00;101531.13;2106498;28;20189;-60
2023/01/22 00:52:27;;;;;;;19.90;17.80;;;;;;;7.98;100.00;101546.13;2103454;28;20197;-60
2023/01/22 00:53:28;;;;;;;20.27;17.87;;;;;;;7.87;100.00;101533.47;2107646;28;20651;-60
2023/01/22 00:54:29;;;;;;;20.33;18.13;;;;;;;7.85;100.00;101542.13;2108562;28;20186;-59
2023/01/22 00:55:29;;;;;;;20.23;17.93;;;;;;;7.86;100.00;101542.94;2108253;28;20710;-60
2023/01/22 00:56:30;;;;;;;19.67;17.53;;;;;;;7.78;100.00;101533.84;2107378;28;20215;-60
2023/01/22 00:57:30;;;;;;;20.73;17.67;;;;;;;7.77;100.00;101546.09;2106332;28;20191;-60
2023/01/22 00:58:31;;;;;;;20.67;18.07;;;;;;;7.81;100.00;101544.13;2105985;28;20279;-60
2023/01/22 00:59:31;;;;;;;20.17;17.37;;;;;;;7.83;100.00;101552.78;2104747;28;20191;-60
2023/01/22 01:00:32;;;;;;;20.27;18.03;;;;;;;7.83;100.00;101557.50;2109622;28;20188;-60
2023/01/22 01:01:32;;;;;;;20.30;17.97;;;;;;;7.87;100.00;101555.56;2104325;28;20301;-60
2023/01/22 01:02:32;;;;;;;19.70;17.60;;;;;;;7.94;100.00;101566.63;2106541;28;20196;-60
2023/01/22 01:03:36;;;;;;;20.70;17.17;;;;;;;7.96;100.00;101567.00;2113936;28;20179;-60
2023/01/22 01:04:37;;;;;;;18.92;16.90;;;;;;;7.97;100.00;101563.88;2112596;28;20311;-60
2023/01/22 01:05:37;;;;;;;19.52;16.45;;;;;;;8.00;100.00;101559.53;2113772;28;20200;-60
2023/01/22 01:06:38;;;;;;;19.50;17.40;;;;;;;7.98;100.00;101564.63;2098896;28;20223;-61
2023/01/22 01:07:38;;;;;;;18.03;16.03;;;;;;;8.00;100.00;101563.06;2100212;28;20801;-60
2023/01/22 01:08:41;;;;;;;18.27;16.17;;;;;;;7.99;100.00;101569.78;2103457;28;20192;-60
2023/01/22 01:09:41;;;;;;;19.02;16.92;;;;;;;8.07;100.00;101557.56;2107386;28;20190;-60
2023/01/22 01:10:42;;;;;;;18.67;16.67;;;;;;;8.00;100.00;101571.34;2109550;28;20182;-60
2023/01/22 01:11:42;;;;;;;19.37;16.93;;;;;;;8.07;100.00;101578.84;2106019;28;20221;-60
2023/01/22 01:12:42;;;;;;;19.03;17.00;;;;;;;8.02;100.00;101570.97;2109966;28;20214;-60
2023/01/22 01:13:44;;;;;;;19.47;17.37;;;;;;;7.97;100.00;101563.06;2106002;28;20178;-60
2023/01/22 01:14:44;;;;;;;20.77;16.75;;;;;;;8.05;100.00;101572.94;2105925;28;20640;-60
2023/01/22 01:15:44;;;;;;;19.53;17.20;;;;;;;8.07;100.00;101576.91;2109702;28;20629;-60
2023/01/22 01:16:45;;;;;;;20.70;17.53;;;;;;;8.09;100.00;101574.53;2107708;28;20191;-60
2023/01/22 01:17:45;;;;;;;19.20;16.97;;;;;;;8.06;100.00;101577.28;2110684;28;20221;-60
2023/01/22 01:18:47;;;;;;;20.43;16.93;;;;;;;8.07;100.00;101576.09;2107179;28;20795;-60
2023/01/22 01:19:47;;;;;;;20.27;17.45;;;;;;;8.12;100.00;101576.50;2110681;28;20235;-59
2023/01/22 01:20:52;;;;;;;21.67;17.47;;;;;;;8.02;100.00;101576.47;2109961;28;20230;-60
2023/01/22 01:21:53;;;;;;;20.35;17.33;;;;;;;8.10;100.00;101578.09;2110520;28;20163;-60
2023/01/22 01:22:53;;;;;;;19.73;17.33;;;;;;;8.06;100.00;101575.31;2105927;28;20242;-60
2023/01/22 01:23:55;;;;;;;20.30;17.23;;;;;;;7.86;100.00;101554.78;2105307;28;20617;-60
2023/01/22 01:24:55;;;;;;;20.35;17.17;;;;;;;8.07;100.00;101578.84;2105369;28;20633;-60
2023/01/22 01:25:56;;;;;;;20.20;17.73;;;;;;;8.06;100.00;101577.28;2106010;28;20217;-60
2023/01/22 01:26:57;;;;;;;20.93;17.53;;;;;;;8.00;100.00;101573.34;2108521;28;20221;-60
2023/01/22 01:27:58;;;;;;;23.33;17.90;;;;;;;7.54;100.00;101504.25;2107802;28;20175;-60
2023/01/22 01:28:59;;;;;;;20.90;18.70;;;;;;;8.10;100.00;101586.38;2106334;28;20645;-60
2023/01/22 01:29:59;;;;;;;22.57;17.90;;;;;;;8.12;100.00;101584.00;2110321;28;20555;-60
2023/01/22 01:31:05;;;;;;;22.37;18.00;;;;;;;8.11;100.00;101593.47;2110455;28;20195;-60
2023/01/22 01:32:05;;;;;;;20.83;16.92;;;;;;;8.13;100.00;101586.38;2112833;28;20282;-60
2023/01/22 01:33:05;;;;;;;23.40;18.17;;;;;;;8.15;100.00;101594.25;2105778;28;20192;-60
2023/01/22 01:34:06;;;;;;;21.57;17.57;;;;;;;8.12;100.00;101592.28;2106623;28;20239;-60
2023/01/22 01:35:07;;;;;;;20.30;17.07;;;;;;;8.14;100.00;101590.69;2109376;28;20243;-61
2023/01/22 01:36:13;;;;;;;21.23;17.73;;;;;;;8.15;100.00;101592.28;2106487;28;20198;-59
2023/01/22 01:37:13;;;;;;;23.55;18.05;;;;;;;7.84;100.00;101546.09;2107023;28;20171;-60
2023/01/22 01:38:14;;;;;;;24.13;17.83;;;;;;;8.24;100.00;101587.19;2105882;28;20175;-60
2023/01/22 01:39:14;;;;;;;23.70;18.40;;;;;;;8.14;100.00;101585.16;2111778;28;20187;-60
2023/01/22 01:40:15;;;;;;;22.37;18.67;;;;;;;7.20;100.00;101430.50;2112418;28;20543;-60
2023/01/22 01:41:21;;;;;;;22.50;18.90;;;;;;;8.12;100.00;101567.41;2109599;28;20277;-60
2023/01/22 01:42:30;;;;;;;22.00;18.42;;;;;;;8.11;100.00;101583.19;2107456;28;20672;-60
2023/01/22 01:43:30;;;;;;;22.77;19.42;;;;;;;8.15;100.00;101586.75;2108327;28;20666;-60
2023/01/22 01:44:31;;;;;;;22.10;19.17;;;;;;;8.09;100.00;101563.47;2107471;28;20553;-60
2023/01/22 01:45:33;;;;;;;27.90;19.13;;;;;;;7.45;100.00;101469.94;2109756;28;20251;-60
2023/01/22 01:46:43;;;;;;;23.95;18.77;;;;;;;8.12;100.00;101578.47;2108274;28;20188;-60
2023/01/22 01:47:44;;;;;;;25.20;19.02;;;;;;;8.15;100.00;101588.75;2106564;28;20242;-60
2023/01/22 01:48:47;;;;;;;27.05;20.08;;;;;;;8.08;100.00;101586.75;2106223;28;20567;-60
2023/01/22 01:49:51;;;;;;;23.60;19.23;;;;;;;8.06;100.00;101588.31;2107392;28;20216;-60
2023/01/22 01:51:01;;;;;;;25.67;20.35;;;;;;;8.09;100.00;101588.31;2112230;28;20368;-60
2023/01/22 01:52:05;;;;;;;23.98;20.00;;;;;;;8.12;100.00;101592.28;2109695;28;20270;-60
2023/01/22 01:53:07;;;;;;;25.98;20.45;;;;;;;8.17;100.00;101578.06;2103931;28;20178;-60
2023/01/22 01:54:08;;;;;;;27.08;19.73;;;;;;;7.74;100.00;101515.72;2109687;28;20681;-60
2023/01/22 01:55:10;;;;;;;31.53;20.17;;;;;;;8.16;100.00;101573.75;2108642;28;20190;-60
2023/01/22 01:56:15;;;;;;;28.42;20.98;;;;;;;8.21;100.00;101573.38;2108393;28;20197;-60
2023/01/22 01:57:19;;;;;;;30.08;20.77;;;;;;;8.25;100.00;101574.19;2111013;28;20545;-60
2023/01/22 01:58:20;;;;;;;29.97;20.73;;;;;;;8.14;100.00;101567.81;2109587;28;20242;-60
2023/01/22 01:59:22;;;;;;;27.53;20.13;;;;;;;7.95;100.00;101533.09;2101702;28;20443;-60
2023/01/22 02:00:25;;;;;;;28.02;20.10;;;;;;;8.16;100.00;101555.19;2107426;28;20645;-60
2023/01/22 02:01:26;;;;;;;30.08;21.30;;;;;;;8.19;100.00;101570.97;2107452;28;20203;-60
2023/01/22 02:02:27;;;;;;;28.55;21.13;;;;;;;8.17;100.00;101564.28;2105422;28;20179;-60
2023/01/22 02:03:28;;;;;;;29.67;21.30;;;;;;;7.76;100.00;101503.13;2105497;28;20656;-59
2023/01/22 02:04:29;;;;;;;30.08;21.63;;;;;;;8.16;100.00;101570.97;2105583;28;20182;-60
2023/01/22 02:05:35;;;;;;;27.30;20.80;;;;;;;7.26;100.00;101434.44;2108902;28;20183;-60
2023/01/22 02:06:35;;;;;;;32.95;22.65;;;;;;;8.21;100.00;101565.09;2106146;28;20190;-60
2023/01/22 02:07:36;;;;;;;28.67;20.73;;;;;;;8.21;100.00;101574.16;2105698;28;20213;-60
2023/01/22 02:08:37;;;;;;;29.60;22.10;;;;;;;8.23;100.00;101580.09;2105196;28;20549;-59
2023/01/22 02:09:37;;;;;;;27.92;20.63;;;;;;;8.24;100.00;101580.88;2107653;28;20171;-59
2023/01/22 02:10:38;;;;;;;29.47;21.40;;;;;;;8.23;100.00;101582.84;2104597;28;20221;-59
2023/01/22 02:11:39;;;;;;;32.65;21.23;;;;;;;7.77;100.00;101520.44;2110743;28;20175;-60
2023/01/22 02:12:39;;;;;;;29.33;21.57;;;;;;;8.20;100.00;101580.09;2112877;28;20271;-60
2023/01/22 02:13:46;;;;;;;27.50;20.33;;;;;;;7.47;100.00;101471.13;2112649;28;20261;-60
2023/01/22 02:14:48;;;;;;;29.58;21.00;;;;;;;8.10;100.00;101578.84;2102387;28;20508;-59
2023/01/22 02:15:49;;;;;;;30.92;21.30;;;;;;;8.08;100.00;101583.19;2110345;28;20194;-60
2023/01/22 02:16:59;;;;;;;29.77;21.53;;;;;;;8.11;100.00;101577.66;2109835;28;20197;-60
2023/01/22 02:18:00;;;;;;;28.42;20.73;;;;;;;8.07;100.00;101581.63;2102687;28;20239;-60
2023/01/22 02:19:01;;;;;;;25.87;20.37;;;;;;;8.08;100.00;101589.50;2107866;28;20230;-60
2023/01/22 02:20:02;;;;;;;30.67;21.73;;;;;;;7.74;100.00;101526.75;2105427;28;20221;-60
2023/01/22 02:21:03;;;;;;;33.17;23.57;;;;;;;8.11;100.00;101594.22;2112942;28;20201;-60
2023/01/22 02:22:19;;;;;;;29.77;21.83;;;;;;;7.58;100.00;101527.09;2110048;28;20203;-60
2023/01/22 02:23:20;;;;;;;28.90;21.20;;;;;;;8.14;100.00;101609.22;2104243;28;20221;-60
2023/01/22 02:24:20;;;;;;;30.80;21.73;;;;;;;8.12;100.00;101612.41;2106912;28;20187;-60
2023/01/22 02:25:22;;;;;;;28.83;21.20;;;;;;;8.12;100.00;101612.41;2107723;28;20652;-60
2023/01/22 02:26:22;;;;;;;35.90;22.13;;;;;;;7.95;100.00;101588.28;2105322;28;20744;-60
2023/01/22 02:27:23;;;;;;;30.00;21.73;;;;;;;8.16;100.00;101612.41;2105821;28;20609;-60
2023/01/22 02:28:24;;;;;;;33.80;22.83;;;;;;;7.57;100.00;101517.25;2108667;28;20203;-60
2023/01/22 02:29:26;;;;;;;31.53;23.20;;;;;;;8.16;100.00;101612.41;2105632;28;20194;-60
2023/01/22 02:30:26;;;;;;;30.95;22.38;;;;;;;8.19;100.00;101608.84;2105765;28;20644;-60
2023/01/22 02:31:27;;;;;;;31.43;22.47;;;;;;;8.17;100.00;101617.53;2105797;28;20554;-60
2023/01/22 02:32:30;;;;;;;26.93;22.10;;;;;;;8.18;100.00;101616.34;2107704;28;20469;-60
2023/01/22 02:33:30;;;;;;;30.08;20.90;;;;;;;8.15;100.00;101619.88;2106135;28;20183;-60
2023/01/22 02:34:31;;;;;;;31.13;22.57;;;;;;;8.22;100.00;101617.19;2112003;28;20178;-60
2023/01/22 02:35:31;;;;;;;33.03;22.57;;;;;;;8.26;100.00;101612.44;2113306;28;20191;-60
2023/01/22 02:36:34;;;;;;;33.90;23.07;;;;;;;8.11;100.00;101590.69;2109254;28;20182;-60
2023/01/22 02:37:34;;;;;;;37.90;23.10;;;;;;;8.25;100.00;101630.19;2105670;28;20226;-60
2023/01/22 02:38:35;;;;;;;33.97;24.07;;;;;;;8.21;100.00;101603.75;2104796;28;20187;-60
2023/01/22 02:39:35;;;;;;;34.97;23.70;;;;;;;7.96;100.00;101565.06;2107497;28;20594;-60
2023/01/22 02:40:47;;;;;;;37.80;22.67;;;;;;;8.30;100.00;101609.69;2107828;28;20243;-60
2023/01/22 02:41:48;;;;;;;28.50;21.10;;;;;;;8.30;100.00;101598.66;2112459;28;20199;-60
2023/01/22 02:42:49;;;;;;;29.13;21.27;;;;;;;8.30;100.00;101604.16;2112905;28;20206;-60
2023/01/22 02:43:49;;;;;;;33.70;21.90;;;;;;;8.28;100.00;101609.28;2110511;28;20566;-60
2023/01/22 02:44:51;;;;;;;29.33;21.63;;;;;;;8.21;100.00;101599.00;2104900;28;20194;-60
2023/01/22 02:45:52;;;;;;;35.63;22.40;;;;;;;8.16;100.00;101593.06;2109534;28;20213;-60
2023/01/22 02:46:53;;;;;;;28.77;21.27;;;;;;;8.11;100.00;101597.00;2107165;28;20190;-60
2023/01/22 02:47:53;;;;;;;29.43;20.30;;;;;;;8.10;100.00;101605.69;2111346;28;20266;-60
2023/01/22 02:48:54;;;;;;;30.03;21.33;;;;;;;8.08;100.00;101608.03;2105121;28;20569;-60
2023/01/22 02:49:54;;;;;;;32.17;22.27;;;;;;;8.07;100.00;101614.75;2105219;28;20198;-60
2023/01/22 02:50:55;;;;;;;31.63;22.33;;;;;;;8.17;100.00;101619.50;2108899;28;20190;-60
2023/01/22 02:51:55;;;;;;;35.00;23.80;;;;;;;7.53;100.00;101532.22;2110056;28;20188;-60
2023/01/22 02:52:55;;;;;;;36.87;24.17;;;;;;;8.03;100.00;101619.47;2104490;28;20184;-60
2023/01/22 02:53:56;;;;;;;34.83;23.97;;;;;;;7.97;100.00;101623.78;2105361;28;20231;-60
2023/01/22 02:54:56;;;;;;;41.17;25.10;;;;;;;7.68;100.00;101576.00;2106247;28;20203;-60
2023/01/22 02:55:57;;;;;;;39.73;24.30;;;;;;;8.01;100.00;101630.13;2105304;28;20207;-60
2023/01/22 02:56:57;;;;;;;38.53;24.60;;;;;;;7.89;100.00;101616.69;2105687;28;20205;-60
2023/01/22 02:57:58;;;;;;;40.27;24.53;;;;;;;8.02;100.00;101624.22;2109078;28;20246;-60
2023/01/22 02:58:59;;;;;;;40.57;25.37;;;;;;;8.04;100.00;101623.81;2108377;28;20657;-60
2023/01/22 03:00:00;;;;;;;38.40;24.30;;;;;;;8.04;100.00;101627.34;2109192;28;20187;-60
2023/01/22 03:01:19;;;;;;;36.33;24.20;;;;;;;8.01;100.00;101608.03;2109400;28;20181;-60
2023/01/22 03:02:20;;;;;;;43.05;24.45;;;;;;;8.09;100.00;101621.44;2102498;28;20544;-60
2023/01/22 03:03:21;;;;;;;46.95;24.45;;;;;;;8.09;100.00;101620.69;2106898;28;20186;-60
2023/01/22 03:04:22;;;;;;;41.43;24.77;;;;;;;7.79;100.00;101562.25;2105263;28;20199;-60
2023/01/22 03:05:24;;;;;;;43.40;24.90;;;;;;;8.12;100.00;101623.44;2104249;28;20185;-60
2023/01/22 03:06:26;;;;;;;42.72;23.90;;;;;;;8.17;100.00;101627.78;2104071;28;20193;-60
2023/01/22 03:07:33;;;;;;;40.30;24.23;;;;;;;8.16;100.00;101634.50;2108975;28;20288;-60
2023/01/22 03:08:33;;;;;;;43.67;24.35;;;;;;;7.41;100.00;101505.78;2105723;28;20272;-60
2023/01/22 03:09:34;;;;;;;43.43;24.77;;;;;;;8.14;100.00;101623.84;2110565;28;20179;-60
2023/01/22 03:10:34;;;;;;;42.27;24.17;;;;;;;8.19;100.00;101620.69;2107076;28;20287;-60
2023/01/22 03:11:36;;;;;;;43.10;23.97;;;;;;;8.21;100.00;101621.09;2106705;28;20213;-60
2023/01/22 03:21:54;;;;;;;44.65;25.45;;;;;;;7.95;100.00;101637.97;2109351;28;20691;-60
2023/01/22 03:22:54;;;;;;;44.70;25.53;;;;;;;7.93;100.00;101645.06;2109238;28;20932;-60
2023/01/22 03:23:55;;;;;;;40.20;24.33;;;;;;;7.94;100.00;101644.69;2108979;28;20623;-60
2023/01/22 03:24:57;;;;;;;44.30;24.43;;;;;;;7.95;100.00;101649.00;2108620;28;20178;-60
2023/01/22 03:25:57;;;;;;;46.10;25.27;;;;;;;7.94;100.00;101646.66;2109113;28;20195;-60
2023/01/22 03:26:58;;;;;;;42.13;24.47;;;;;;;7.92;100.00;101637.97;2105506;28;20545;-60
2023/01/22 03:28:07;;;;;;;45.53;25.20;;;;;;;7.77;100.00;101615.06;2105710;28;20181;-60
2023/01/22 03:29:08;;;;;;;44.45;24.92;;;;;;;7.91;100.00;101639.16;2106086;28;20198;-60
2023/01/22 03:30:09;;;;;;;44.23;25.20;;;;;;;7.91;100.00;101634.44;2108297;28;20694;-60
2023/01/22 03:31:10;;;;;;;39.78;23.65;;;;;;;7.76;100.00;101599.69;2102624;28;20197;-61
2023/01/22 03:32:11;;;;;;;41.30;24.33;;;;;;;7.88;100.00;101626.91;2105126;28;20270;-59
2023/01/22 03:33:11;;;;;;;43.67;24.50;;;;;;;7.93;100.00;101628.50;2104773;28;20171;-60
2023/01/22 03:34:12;;;;;;;40.73;23.73;;;;;;;7.95;100.00;101628.91;2108674;28;20187;-60
2023/01/22 03:35:12;;;;;;;43.57;24.03;;;;;;;7.30;100.00;101532.53;2104814;28;20175;-61
2023/01/22 03:36:14;;;;;;;42.67;24.07;;;;;;;7.86;100.00;101625.72;2109096;28;20837;-60
2023/01/22 03:37:15;;;;;;;42.25;25.38;;;;;;;7.83;100.00;101623.75;2107646;28;20229;-61
2023/01/22 03:38:15;;;;;;;43.80;24.27;;;;;;;7.87;100.00;101635.59;2103575;28;20196;-60
2023/01/22 03:39:16;;;;;;;42.97;24.80;;;;;;;7.83;100.00;101638.34;2104105;28;20191;-60
2023/01/22 03:40:16;;;;;;;39.67;23.47;;;;;;;7.83;100.00;101637.53;2105696;28;20179;-61
2023/01/22 03:41:17;;;;;;;41.13;24.07;;;;;;;7.69;100.00;101618.97;2105283;28;20194;-60
2023/01/22 03:42:18;;;;;;;41.67;24.35;;;;;;;7.77;100.00;101637.13;2108598;28;20711;-60
2023/01/22 03:43:18;;;;;;;43.93;25.37;;;;;;;7.78;100.00;101644.22;2096167;28;20686;-60
2023/01/22 03:44:18;;;;;;;42.07;24.83;;;;;;;7.77;100.00;101631.63;2100047;28;20194;-60
2023/01/22 03:45:19;;;;;;;44.03;24.97;;;;;;;7.71;100.00;101627.66;2105364;28;20202;-61
2023/01/22 03:46:20;;;;;;;40.37;23.13;;;;;;;7.67;100.00;101626.06;2106306;28;20194;-60
2023/01/22 03:47:20;;;;;;;39.42;23.77;;;;;;;7.59;100.00;101611.44;2109529;28;20175;-60
2023/01/22 03:48:21;;;;;;;41.63;24.83;;;;;;;7.66;100.00;101627.22;2104717;28;20218;-60
2023/01/22 03:49:22;;;;;;;39.77;23.67;;;;;;;7.10;100.00;101539.56;2104929;28;20183;-61
2023/01/22 03:50:22;;;;;;;40.55;23.90;;;;;;;7.63;100.00;101626.03;2105033;28;20185;-60
2023/01/22 03:51:23;;;;;;;41.27;23.87;;;;;;;7.53;100.00;101610.25;2105369;28;20171;-60
2023/01/22 03:52:23;;;;;;;40.23;24.50;;;;;;;7.60;100.00;101634.31;2108802;28;20321;-60
2023/01/22 03:53:24;;;;;;;43.33;24.03;;;;;;;7.46;100.00;101610.22;2109137;28;20236;-59
2023/01/22 03:54:24;;;;;;;41.40;24.27;;;;;;;7.49;100.00;101630.72;2109760;28;20179;-61
2023/01/22 03:55:25;;;;;;;41.73;23.83;;;;;;;7.27;100.00;101612.47;2106795;28;20187;-60
2023/01/22 03:56:26;;;;;;;38.73;24.30;;;;;;;7.52;100.00;101646.47;2109654;28;20675;-60
2023/01/22 03:57:26;;;;;;;43.15;23.98;;;;;;;7.46;100.00;101637.81;2106641;28;20202;-60
2023/01/22 03:58:28;;;;;;;41.97;23.77;;;;;;;7.53;100.00;101648.84;2111726;28;20178;-60
2023/01/22 03:59:29;;;;;;;43.10;23.83;;;;;;;6.51;100.00;101476.63;2111966;28;20245;-60
2023/01/22 04:00:29;;;;;;;41.77;23.33;;;;;;;7.55;100.00;101640.19;2109236;28;20225;-61
2023/01/22 04:01:30;;;;;;;40.20;22.37;;;;;;;7.38;100.00;101627.91;2112144;28;20752;-60
2023/01/22 04:02:30;;;;;;;41.87;23.53;;;;;;;7.54;100.00;101653.19;2110301;28;20220;-60
2023/01/22 04:03:31;;;;;;;37.13;22.53;;;;;;;7.50;100.00;101660.69;2109540;28;20215;-60
2023/01/22 04:04:31;;;;;;;37.23;22.27;;;;;;;7.45;100.00;101655.53;2104416;28;20207;-61
2023/01/22 04:05:32;;;;;;;39.40;23.10;;;;;;;7.41;100.00;101656.66;2111665;28;20171;-61
2023/01/22 04:06:32;;;;;;;39.17;23.27;;;;;;;7.40;100.00;101655.09;2111024;28;20175;-60
2023/01/22 04:07:33;;;;;;;38.57;21.40;;;;;;;7.38;100.00;101655.47;2110371;28;20243;-60
2023/01/22 04:08:35;;;;;;;35.00;22.40;;;;;;;7.34;100.00;101659.41;2111967;28;20312;-60
2023/01/22 04:09:35;;;;;;;38.70;22.70;;;;;;;7.33;100.00;101666.09;2104994;28;20683;-60
2023/01/22 04:10:36;;;;;;;34.40;21.83;;;;;;;7.37;100.00;101664.13;2109129;28;20564;-61
2023/01/22 04:11:36;;;;;;;38.43;22.10;;;;;;;7.43;100.00;101670.88;2106566;28;20679;-60
2023/01/22 04:12:36;;;;;;;34.90;21.57;;;;;;;7.44;100.00;101673.22;2104890;28;20671;-60
2023/01/22 04:13:39;;;;;;;36.47;22.53;;;;;;;7.43;100.00;101677.16;2104753;28;20229;-60
2023/01/22 04:14:39;;;;;;;36.22;19.98;;;;;;;6.69;100.00;101562.94;2110376;28;20669;-60
2023/01/22 04:15:43;;;;;;;33.53;21.17;;;;;;;7.46;100.00;101668.13;2110544;28;20571;-60
2023/01/22 04:16:44;;;;;;;33.15;19.67;;;;;;;7.47;100.00;101671.66;2104991;28;20654;-60
2023/01/22 04:17:44;;;;;;;35.00;21.23;;;;;;;6.89;100.00;101577.22;2112150;28;20610;-60
2023/01/22 04:18:45;;;;;;;34.97;21.90;;;;;;;7.40;100.00;101653.13;2105150;28;20310;-60
2023/01/22 04:19:45;;;;;;;36.80;22.10;;;;;;;7.46;100.00;101675.59;2109339;28;20186;-60
2023/01/22 04:20:49;;;;;;;37.17;22.90;;;;;;;7.45;100.00;101672.06;2106679;28;20194;-60
2023/01/22 04:21:50;;;;;;;34.20;20.73;;;;;;;7.43;100.00;101693.72;2098758;28;20692;-60
2023/01/22 04:22:50;;;;;;;34.17;21.63;;;;;;;7.41;100.00;101682.28;2111011;28;20204;-60
2023/01/22 04:23:52;;;;;;;42.05;25.92;;;;;;;7.43;100.00;101685.44;2107874;28;20215;-60
2023/01/22 04:24:53;;;;;;;47.47;27.93;;;;;;;7.41;100.00;101690.56;2111234;28;20708;-60
2023/01/22 04:25:53;;;;;;;39.80;22.87;;;;;;;7.41;100.00;101687.81;2110636;28;20187;-60
2023/01/22 04:26:53;;;;;;;38.70;23.67;;;;;;;7.44;100.00;101697.28;2103579;28;20244;-61
2023/01/22 04:27:54;;;;;;;38.93;22.63;;;;;;;7.40;100.00;101697.25;2102987;28;20712;-61
2023/01/22 04:28:54;;;;;;;38.20;22.63;;;;;;;7.43;100.00;101707.50;2109946;28;20190;-60
2023/01/22 04:29:55;;;;;;;37.23;22.70;;;;;;;7.40;100.00;101710.25;2106293;28;20218;-60
2023/01/22 04:30:55;;;;;;;37.67;23.03;;;;;;;7.38;100.00;101713.38;2104692;28;20185;-60
2023/01/22 04:31:56;;;;;;;34.57;21.83;;;;;;;7.42;100.00;101716.16;2108071;28;20636;-61
2023/01/22 04:32:56;;;;;;;40.13;23.17;;;;;;;7.42;100.00;101714.19;2105289;28;20181;-61
2023/01/22 04:33:57;;;;;;;38.53;23.80;;;;;;;7.43;100.00;101707.50;2108836;28;20270;-60
2023/01/22 04:34:57;;;;;;;36.93;22.17;;;;;;;7.42;100.00;101705.94;2108786;28;20274;-60
2023/01/22 04:35:58;;;;;;;35.77;22.63;;;;;;;7.49;100.00;101710.69;2109666;28;20216;-60
2023/01/22 04:36:58;;;;;;;40.87;24.60;;;;;;;7.49;100.00;101711.47;2114339;28;20752;-60
2023/01/22 04:37:59;;;;;;;45.00;26.60;;;;;;;7.51;100.00;101722.13;2110716;28;20196;-60
2023/01/22 04:38:59;;;;;;;38.60;24.20;;;;;;;7.18;100.00;101653.41;2109360;28;20281;-60
2023/01/22 04:40:00;;;;;;;42.03;25.67;;;;;;;7.46;100.00;101700.44;2109719;28;20183;-61
2023/01/22 04:41:00;;;;;;;43.30;26.40;;;;;;;7.52;100.00;101709.91;2109097;28;20314;-60
2023/01/22 04:42:00;;;;;;;37.57;25.13;;;;;;;7.54;100.00;101715.84;2109545;28;20186;-60
2023/01/22 04:43:03;;;;;;;38.53;24.93;;;;;;;7.57;100.00;101720.59;2112638;28;20167;-60
2023/01/22 04:44:03;;;;;;;37.92;24.25;;;;;;;7.63;100.00;101717.09;2113728;28;20582;-61
2023/01/22 04:45:04;;;;;;;39.57;24.23;;;;;;;7.64;100.00;101717.88;2109288;28;20192;-60
2023/01/22 04:46:05;;;;;;;36.33;22.65;;;;;;;7.69;100.00;101712.00;2110443;28;20188;-60
2023/01/22 04:47:05;;;;;;;43.20;25.77;;;;;;;7.71;100.00;101707.69;2107259;28;20699;-60
2023/01/22 04:48:07;;;;;;;38.60;24.77;;;;;;;7.76;100.00;101712.03;2111819;28;20638;-60